createdAt,value
2019-06-15T00:00:39.734Z,18.79
2019-06-15T00:01:39.723Z,18.84
2019-06-15T00:02:39.712Z,18.83
2019-06-15T00:03:39.726Z,18.96
2019-06-15T00:04:39.687Z,19.01
2019-06-15T00:05:39.678Z,19.07
2019-06-15T00:06:39.666Z,19.06
2019-06-15T00:07:39.655Z,19.06
2019-06-15T00:08:39.684Z,19.07
2019-06-15T00:09:39.642Z,19.09
2019-06-15T00:10:39.621Z,19.07
2019-06-15T00:11:39.610Z,19.01
2019-06-15T00:12:39.599Z,19.06
2019-06-15T00:13:39.619Z,19.05
2019-06-15T00:14:39.572Z,19.07
2019-06-15T00:15:39.562Z,19.05
2019-06-15T00:16:39.552Z,18.97
2019-06-15T00:17:39.543Z,19.09
2019-06-15T00:18:39.561Z,18.97
2019-06-15T00:19:39.516Z,19.10
2019-06-15T00:20:39.507Z,19.10
2019-06-15T00:21:39.494Z,19.10
2019-06-15T00:22:39.484Z,19.06
2019-06-15T00:23:39.476Z,18.97
2019-06-15T00:24:39.494Z,18.97
2019-06-15T00:25:39.516Z,18.97
2019-06-15T00:26:39.447Z,19.02
2019-06-15T00:27:39.427Z,18.99
2019-06-15T00:28:39.419Z,18.97
2019-06-15T00:29:39.438Z,18.87
2019-06-15T00:30:39.393Z,18.90
2019-06-15T00:31:39.386Z,18.87
2019-06-15T00:32:39.373Z,18.82
2019-06-15T00:33:39.365Z,18.75
2019-06-15T00:34:39.381Z,18.72
2019-06-15T00:35:39.342Z,18.69
2019-06-15T00:36:39.331Z,18.68
2019-06-15T00:37:39.315Z,18.74
2019-06-15T00:38:39.305Z,18.74
2019-06-15T00:39:39.326Z,18.71
2019-06-15T00:40:39.298Z,18.68
2019-06-15T00:41:39.278Z,18.66
2019-06-15T00:42:39.259Z,18.69
2019-06-15T00:43:39.248Z,18.69
2019-06-15T00:44:39.270Z,18.72
2019-06-15T00:45:39.232Z,18.65
2019-06-15T00:46:39.215Z,18.65
2019-06-15T00:47:39.209Z,18.72
2019-06-15T00:48:39.195Z,18.68
2019-06-15T00:49:39.216Z,18.59
2019-06-15T00:50:39.190Z,18.60
2019-06-15T00:51:39.165Z,18.54
2019-06-15T00:52:39.147Z,18.50
2019-06-15T00:53:39.139Z,18.50
2019-06-15T00:54:49.917Z,18.50
2019-06-15T00:55:40.112Z,18.57
2019-06-15T00:56:39.105Z,18.59
2019-06-15T00:57:39.090Z,18.54
2019-06-15T00:58:39.078Z,18.62
2019-06-15T00:59:39.102Z,18.57
2019-06-15T01:00:39.063Z,18.60
2019-06-15T01:01:39.052Z,18.62
2019-06-15T01:02:39.033Z,18.68
2019-06-15T01:03:39.023Z,18.69
2019-06-15T01:04:39.045Z,18.68
2019-06-15T01:05:39.004Z,18.60
2019-06-15T01:06:38.991Z,18.60
2019-06-15T01:07:38.984Z,18.66
2019-06-15T01:08:38.973Z,18.62
2019-06-15T01:09:38.964Z,18.56
2019-06-15T01:10:38.977Z,18.50
2019-06-15T01:11:38.932Z,18.49
2019-06-15T01:12:38.922Z,18.38
2019-06-15T01:13:38.913Z,18.38
2019-06-15T01:14:38.904Z,18.51
2019-06-15T01:15:38.923Z,18.46
2019-06-15T01:16:38.877Z,18.34
2019-06-15T01:17:38.869Z,18.35
2019-06-15T01:18:38.857Z,18.39
2019-06-15T01:19:38.845Z,18.34
2019-06-15T01:20:38.862Z,18.31
2019-06-15T01:21:38.819Z,18.36
2019-06-15T01:22:38.818Z,18.28
2019-06-15T01:23:38.799Z,18.36
2019-06-15T01:24:38.784Z,18.29
2019-06-15T01:25:38.806Z,18.34
2019-06-15T01:26:38.763Z,18.36
2019-06-15T01:27:38.755Z,18.29
2019-06-15T01:28:38.741Z,18.35
2019-06-15T01:29:38.727Z,18.28
2019-06-15T01:30:38.756Z,18.29
2019-06-15T01:31:38.707Z,18.26
2019-06-15T01:32:38.695Z,18.21
2019-06-15T01:33:38.686Z,18.29
2019-06-15T01:34:38.687Z,18.31
2019-06-15T01:35:38.692Z,18.39
2019-06-15T01:36:38.651Z,18.26
2019-06-15T01:37:38.639Z,18.35
2019-06-15T01:38:38.626Z,18.36
2019-06-15T01:39:38.618Z,18.32
2019-06-15T01:40:38.636Z,18.35
2019-06-15T01:41:38.596Z,18.35
2019-06-15T01:42:38.581Z,18.34
2019-06-15T01:43:38.573Z,18.23
2019-06-15T01:44:38.559Z,18.21
2019-06-15T01:45:38.579Z,18.28
2019-06-15T01:46:38.539Z,18.23
2019-06-15T01:47:38.524Z,18.29
2019-06-15T01:48:38.513Z,18.26
2019-06-15T01:49:38.506Z,18.26
2019-06-15T01:50:38.524Z,18.36
2019-06-15T01:51:38.482Z,18.29
2019-06-15T01:52:38.471Z,18.39
2019-06-15T01:53:38.457Z,18.35
2019-06-15T01:54:38.471Z,18.35
2019-06-15T01:55:38.439Z,18.35
2019-06-15T01:56:38.457Z,18.36
2019-06-15T01:57:38.414Z,18.39
2019-06-15T01:58:38.402Z,18.36
2019-06-15T01:59:38.388Z,18.36
2019-06-15T02:00:38.388Z,18.34
2019-06-15T02:01:38.400Z,18.36
2019-06-15T02:02:38.361Z,18.34
2019-06-15T02:03:38.344Z,18.29
2019-06-15T02:04:38.375Z,18.25
2019-06-15T02:05:38.388Z,18.25
2019-06-15T02:06:38.343Z,18.25
2019-06-15T02:07:38.300Z,18.20
2019-06-15T02:08:38.293Z,18.23
2019-06-15T02:09:38.276Z,18.17
2019-06-15T02:10:38.267Z,18.14
2019-06-15T02:11:38.285Z,18.17
2019-06-15T02:12:38.242Z,18.10
2019-06-15T02:13:38.231Z,18.14
2019-06-15T02:14:38.223Z,18.05
2019-06-15T02:15:38.216Z,18.02
2019-06-15T02:16:38.231Z,18.01
2019-06-15T02:17:38.188Z,18.16
2019-06-15T02:18:38.192Z,18.14
2019-06-15T02:19:38.162Z,18.11
2019-06-15T02:20:38.153Z,18.10
2019-06-15T02:21:38.174Z,17.95
2019-06-15T02:22:38.132Z,17.96
2019-06-15T02:23:38.120Z,17.95
2019-06-15T02:24:38.106Z,17.89
2019-06-15T02:25:38.097Z,17.87
2019-06-15T02:26:38.128Z,17.87
2019-06-15T02:27:38.072Z,17.96
2019-06-15T02:28:38.064Z,17.99
2019-06-15T02:29:38.049Z,17.95
2019-06-15T02:30:38.042Z,17.96
2019-06-15T02:31:38.058Z,18.01
2019-06-15T02:32:38.017Z,17.99
2019-06-15T02:33:38.010Z,17.99
2019-06-15T02:34:37.994Z,18.02
2019-06-15T02:35:37.998Z,18.11
2019-06-15T02:36:37.982Z,18.09
2019-06-15T02:37:37.995Z,18.07
2019-06-15T02:38:37.948Z,18.09
2019-06-15T02:39:37.941Z,18.14
2019-06-15T02:40:37.927Z,18.11
2019-06-15T02:41:37.921Z,18.09
2019-06-15T02:42:37.942Z,18.13
2019-06-15T02:43:37.894Z,18.11
2019-06-15T02:44:37.881Z,18.02
2019-06-15T02:45:37.874Z,18.11
2019-06-15T02:46:37.861Z,18.10
2019-06-15T02:47:37.883Z,18.02
2019-06-15T02:48:37.838Z,18.02
2019-06-15T02:49:37.824Z,17.91
2019-06-15T02:50:37.817Z,17.86
2019-06-15T02:51:37.805Z,17.83
2019-06-15T02:52:37.822Z,17.80
2019-06-15T02:53:37.782Z,17.84
2019-06-15T02:54:37.769Z,17.77
2019-06-15T02:55:49.726Z,17.83
2019-06-15T02:56:38.743Z,17.83
2019-06-15T02:57:37.768Z,17.83
2019-06-15T02:58:37.725Z,17.77
2019-06-15T02:59:37.713Z,17.83
2019-06-15T03:00:37.707Z,17.74
2019-06-15T03:01:37.691Z,17.76
2019-06-15T03:02:37.708Z,17.79
2019-06-15T03:03:37.667Z,17.84
2019-06-15T03:04:37.655Z,17.86
2019-06-15T03:05:37.646Z,17.84
2019-06-15T03:06:37.652Z,17.80
2019-06-15T03:07:37.651Z,17.70
2019-06-15T03:08:37.609Z,17.73
2019-06-15T03:09:37.602Z,17.70
2019-06-15T03:10:37.587Z,17.68
2019-06-15T03:11:37.575Z,17.74
2019-06-15T03:12:37.601Z,17.68
2019-06-15T03:13:37.554Z,17.81
2019-06-15T03:14:37.541Z,17.77
2019-06-15T03:15:37.535Z,17.79
2019-06-15T03:16:37.529Z,17.80
2019-06-15T03:17:37.515Z,17.84
2019-06-15T03:18:37.545Z,17.79
2019-06-15T03:19:37.490Z,17.74
2019-06-15T03:20:37.481Z,17.77
2019-06-15T03:21:37.462Z,17.73
2019-06-15T03:22:37.467Z,17.73
2019-06-15T03:23:37.477Z,17.74
2019-06-15T03:24:37.429Z,17.73
2019-06-15T03:25:37.418Z,17.62
2019-06-15T03:26:37.407Z,17.68
2019-06-15T03:27:37.398Z,17.68
2019-06-15T03:28:37.422Z,17.66
2019-06-15T03:29:37.373Z,17.70
2019-06-15T03:30:37.381Z,17.68
2019-06-15T03:31:37.350Z,17.63
2019-06-15T03:32:37.341Z,17.63
2019-06-15T03:33:37.370Z,17.68
2019-06-15T03:34:37.318Z,17.70
2019-06-15T03:35:37.306Z,17.66
2019-06-15T03:36:37.298Z,17.71
2019-06-15T03:37:37.294Z,17.68
2019-06-15T03:38:37.305Z,17.60
2019-06-15T03:39:37.261Z,17.66
2019-06-15T03:40:37.255Z,17.71
2019-06-15T03:41:37.243Z,17.65
2019-06-15T03:42:37.226Z,17.66
2019-06-15T03:43:37.249Z,17.68
2019-06-15T03:44:37.204Z,17.73
2019-06-15T03:45:37.192Z,17.63
2019-06-15T03:46:37.183Z,17.65
2019-06-15T03:47:37.173Z,17.65
2019-06-15T03:48:37.192Z,17.70
2019-06-15T03:49:37.151Z,17.66
2019-06-15T03:50:37.137Z,17.68
2019-06-15T03:51:37.125Z,17.63
2019-06-15T03:52:37.119Z,17.66
2019-06-15T03:53:37.140Z,17.63
2019-06-15T03:54:37.092Z,17.70
2019-06-15T03:55:39.807Z,17.73
2019-06-15T03:56:37.067Z,17.77
2019-06-15T03:57:37.057Z,17.76
2019-06-15T03:58:37.080Z,17.77
2019-06-15T03:59:37.038Z,17.71
2019-06-15T04:00:37.027Z,17.79
2019-06-15T04:01:37.014Z,17.80
2019-06-15T04:02:37.002Z,17.81
2019-06-15T04:03:37.091Z,17.79
2019-06-15T04:04:36.978Z,17.74
2019-06-15T04:05:36.971Z,17.79
2019-06-15T04:06:36.958Z,17.74
2019-06-15T04:07:36.944Z,17.79
2019-06-15T04:08:36.965Z,17.79
2019-06-15T04:09:36.939Z,17.80
2019-06-15T04:10:36.913Z,17.76
2019-06-15T04:11:36.897Z,17.79
2019-06-15T04:12:36.889Z,17.86
2019-06-15T04:13:36.878Z,17.89
2019-06-15T04:14:36.900Z,17.94
2019-06-15T04:15:36.854Z,17.91
2019-06-15T04:16:36.842Z,17.91
2019-06-15T04:17:36.835Z,17.89
2019-06-15T04:18:36.823Z,17.94
2019-06-15T04:19:36.843Z,17.87
2019-06-15T04:20:36.798Z,17.84
2019-06-15T04:21:36.787Z,17.89
2019-06-15T04:22:36.776Z,17.87
2019-06-15T04:23:36.767Z,17.84
2019-06-15T04:24:36.786Z,17.87
2019-06-15T04:25:36.743Z,17.86
2019-06-15T04:26:36.758Z,17.86
2019-06-15T04:27:36.719Z,17.89
2019-06-15T04:28:36.708Z,17.86
2019-06-15T04:29:36.728Z,17.87
2019-06-15T04:30:36.686Z,17.92
2019-06-15T04:31:39.858Z,18.01
2019-06-15T04:32:36.675Z,17.99
2019-06-15T04:33:36.651Z,18.05
2019-06-15T04:34:36.677Z,17.98
2019-06-15T04:35:36.632Z,17.96
2019-06-15T04:36:36.619Z,17.98
2019-06-15T04:37:36.610Z,18.10
2019-06-15T04:38:36.598Z,18.02
2019-06-15T04:39:36.614Z,18.02
2019-06-15T04:40:36.574Z,18.09
2019-06-15T04:41:36.564Z,18.19
2019-06-15T04:42:36.549Z,18.13
2019-06-15T04:43:36.539Z,18.10
2019-06-15T04:44:36.559Z,18.14
2019-06-15T04:45:36.515Z,18.11
2019-06-15T04:46:36.504Z,18.07
2019-06-15T04:47:36.496Z,18.10
2019-06-15T04:48:36.482Z,18.09
2019-06-15T04:49:36.515Z,18.14
2019-06-15T04:50:36.465Z,18.21
2019-06-15T04:51:36.452Z,18.09
2019-06-15T04:52:36.436Z,18.10
2019-06-15T04:53:36.429Z,18.09
2019-06-15T04:54:36.416Z,18.05
2019-06-15T04:55:36.437Z,18.09
2019-06-15T04:56:47.827Z,18.11
2019-06-15T04:57:37.382Z,18.10
2019-06-15T04:58:36.369Z,18.11
2019-06-15T04:59:36.362Z,18.13
2019-06-15T05:00:36.380Z,18.16
2019-06-15T05:01:36.337Z,18.13
2019-06-15T05:02:36.327Z,18.11
2019-06-15T05:03:36.312Z,18.10
2019-06-15T05:04:36.304Z,18.20
2019-06-15T05:05:36.327Z,18.14
2019-06-15T05:06:36.282Z,18.17
2019-06-15T05:07:36.271Z,18.26
2019-06-15T05:08:36.263Z,18.14
2019-06-15T05:09:36.245Z,18.21
2019-06-15T05:10:36.265Z,18.16
2019-06-15T05:11:36.229Z,18.14
2019-06-15T05:12:36.212Z,18.25
2019-06-15T05:13:36.200Z,18.25
2019-06-15T05:14:36.188Z,18.17
2019-06-15T05:15:36.208Z,18.23
2019-06-15T05:16:36.170Z,18.28
2019-06-15T05:17:36.169Z,18.23
2019-06-15T05:18:36.153Z,18.21
2019-06-15T05:19:36.131Z,18.20
2019-06-15T05:20:36.153Z,18.20
2019-06-15T05:21:36.111Z,18.20
2019-06-15T05:22:36.098Z,18.23
2019-06-15T05:23:36.105Z,18.21
2019-06-15T05:24:36.074Z,18.19
2019-06-15T05:25:36.097Z,18.21
2019-06-15T05:26:36.052Z,18.20
2019-06-15T05:27:36.044Z,18.19
2019-06-15T05:28:36.080Z,18.23
2019-06-15T05:29:36.022Z,18.26
2019-06-15T05:30:36.039Z,18.20
2019-06-15T05:31:35.999Z,18.26
2019-06-15T05:32:35.988Z,18.25
2019-06-15T05:33:35.972Z,18.20
2019-06-15T05:34:35.962Z,18.23
2019-06-15T05:35:35.982Z,18.26
2019-06-15T05:36:35.949Z,18.21
2019-06-15T05:37:35.928Z,18.21
2019-06-15T05:38:35.918Z,18.29
2019-06-15T05:39:35.905Z,18.29
2019-06-15T05:40:35.896Z,18.25
2019-06-15T05:41:35.916Z,18.31
2019-06-15T05:42:35.871Z,18.32
2019-06-15T05:43:35.860Z,18.36
2019-06-15T05:44:35.850Z,18.28
2019-06-15T05:45:35.843Z,18.32
2019-06-15T05:46:35.858Z,18.32
2019-06-15T05:47:35.815Z,18.28
2019-06-15T05:48:35.804Z,18.23
2019-06-15T05:49:35.792Z,18.25
2019-06-15T05:50:35.788Z,18.32
2019-06-15T05:51:35.806Z,18.26
2019-06-15T05:52:35.757Z,18.28
2019-06-15T05:53:35.749Z,18.23
2019-06-15T05:54:35.737Z,18.29
2019-06-15T05:55:35.724Z,18.21
2019-06-15T05:56:35.751Z,18.21
2019-06-15T05:57:35.702Z,18.21
2019-06-15T05:58:35.693Z,18.21
2019-06-15T05:59:35.680Z,18.19
2019-06-15T06:00:35.675Z,18.19
2019-06-15T06:01:35.688Z,18.25
2019-06-15T06:02:35.648Z,18.28
2019-06-15T06:03:35.639Z,18.23
2019-06-15T06:04:35.623Z,18.21
2019-06-15T06:05:35.612Z,18.20
2019-06-15T06:06:35.631Z,18.21
2019-06-15T06:07:35.590Z,18.25
2019-06-15T06:08:35.580Z,18.23
2019-06-15T06:09:35.569Z,18.38
2019-06-15T06:10:35.555Z,18.39
2019-06-15T06:11:35.576Z,18.35
2019-06-15T06:12:35.534Z,18.41
2019-06-15T06:13:35.519Z,18.42
2019-06-15T06:14:35.511Z,18.47
2019-06-15T06:15:35.498Z,18.53
2019-06-15T06:16:35.519Z,18.62
2019-06-15T06:17:35.477Z,18.56
2019-06-15T06:18:35.464Z,18.54
2019-06-15T06:19:35.452Z,18.65
2019-06-15T06:20:35.444Z,18.66
2019-06-15T06:21:35.463Z,18.69
2019-06-15T06:22:35.419Z,18.75
2019-06-15T06:23:35.409Z,18.79
2019-06-15T06:24:35.395Z,18.79
2019-06-15T06:25:35.389Z,18.79
2019-06-15T06:26:35.376Z,18.69
2019-06-15T06:27:36.749Z,18.74
2019-06-15T06:28:35.352Z,18.78
2019-06-15T06:29:35.340Z,18.83
2019-06-15T06:30:35.329Z,18.75
2019-06-15T06:31:35.320Z,18.76
2019-06-15T06:32:35.340Z,18.75
2019-06-15T06:33:35.302Z,18.78
2019-06-15T06:34:35.283Z,18.79
2019-06-15T06:35:35.276Z,18.79
2019-06-15T06:36:35.259Z,18.74
2019-06-15T06:37:35.282Z,18.82
2019-06-15T06:38:35.241Z,18.79
2019-06-15T06:39:35.230Z,18.84
2019-06-15T06:40:35.219Z,18.90
2019-06-15T06:41:35.202Z,18.83
2019-06-15T06:42:35.228Z,18.87
2019-06-15T06:43:35.189Z,18.96
2019-06-15T06:44:35.171Z,18.99
2019-06-15T06:45:35.157Z,19.01
2019-06-15T06:46:35.147Z,19.15
2019-06-15T06:47:35.167Z,19.10
2019-06-15T06:48:35.124Z,19.15
2019-06-15T06:49:35.116Z,19.12
2019-06-15T06:50:35.103Z,19.13
2019-06-15T06:51:35.090Z,19.15
2019-06-15T06:52:35.254Z,19.13
2019-06-15T06:53:35.067Z,19.15
2019-06-15T06:54:35.058Z,19.17
2019-06-15T06:55:35.054Z,19.23
2019-06-15T06:56:35.037Z,19.23
2019-06-15T06:57:35.053Z,19.34
2019-06-15T06:58:35.012Z,19.30
2019-06-15T06:59:34.999Z,19.25
2019-06-15T07:00:34.990Z,19.32
2019-06-15T07:01:34.982Z,19.28
2019-06-15T07:02:34.996Z,19.30
2019-06-15T07:03:34.955Z,19.28
2019-06-15T07:04:34.943Z,19.32
2019-06-15T07:05:34.931Z,19.32
2019-06-15T07:06:34.920Z,19.35
2019-06-15T07:07:34.913Z,19.42
2019-06-15T07:08:34.930Z,19.39
2019-06-15T07:09:34.902Z,19.43
2019-06-15T07:10:34.879Z,19.47
2019-06-15T07:11:34.864Z,19.43
2019-06-15T07:12:34.856Z,19.46
2019-06-15T07:13:34.880Z,19.45
2019-06-15T07:14:34.832Z,19.45
2019-06-15T07:15:34.824Z,19.46
2019-06-15T07:16:34.810Z,19.49
2019-06-15T07:17:34.797Z,19.52
2019-06-15T07:18:34.819Z,19.46
2019-06-15T07:19:34.776Z,19.58
2019-06-15T07:20:34.764Z,19.55
2019-06-15T07:21:34.752Z,19.47
2019-06-15T07:22:34.742Z,19.55
2019-06-15T07:23:34.759Z,19.52
2019-06-15T07:24:34.718Z,19.49
2019-06-15T07:25:34.708Z,19.60
2019-06-15T07:26:34.697Z,19.61
2019-06-15T07:27:34.687Z,19.61
2019-06-15T07:28:34.705Z,19.57
2019-06-15T07:29:34.662Z,19.72
2019-06-15T07:30:34.655Z,19.71
2019-06-15T07:31:34.642Z,19.71
2019-06-15T07:32:34.629Z,19.76
2019-06-15T07:33:34.651Z,19.72
2019-06-15T07:34:34.605Z,19.71
2019-06-15T07:35:34.670Z,19.70
2019-06-15T07:36:34.583Z,19.75
2019-06-15T07:37:34.573Z,19.82
2019-06-15T07:38:34.591Z,19.85
2019-06-15T07:39:34.556Z,19.85
2019-06-15T07:40:34.552Z,19.94
2019-06-15T07:41:34.589Z,19.94
2019-06-15T07:42:34.515Z,19.94
2019-06-15T07:43:34.535Z,20.02
2019-06-15T07:44:34.495Z,20.02
2019-06-15T07:45:34.487Z,20.13
2019-06-15T07:46:34.480Z,20.13
2019-06-15T07:47:34.458Z,20.16
2019-06-15T07:48:34.480Z,20.12
2019-06-15T07:49:34.442Z,20.16
2019-06-15T07:50:34.425Z,20.20
2019-06-15T07:51:34.414Z,20.25
2019-06-15T07:52:34.406Z,20.35
2019-06-15T07:53:34.427Z,20.30
2019-06-15T07:54:36.254Z,20.33
2019-06-15T07:55:34.378Z,20.37
2019-06-15T07:56:34.358Z,20.34
2019-06-15T07:57:34.348Z,20.42
2019-06-15T07:58:34.339Z,20.48
2019-06-15T07:59:34.363Z,20.46
2019-06-15T08:00:34.318Z,20.53
2019-06-15T08:01:34.305Z,20.54
2019-06-15T08:02:34.294Z,20.57
2019-06-15T08:03:34.286Z,20.42
2019-06-15T08:04:34.313Z,20.54
2019-06-15T08:05:34.258Z,20.56
2019-06-15T08:06:34.247Z,20.56
2019-06-15T08:07:34.238Z,20.63
2019-06-15T08:08:34.224Z,20.68
2019-06-15T08:09:34.246Z,20.60
2019-06-15T08:10:34.201Z,20.66
2019-06-15T08:11:34.190Z,20.63
2019-06-15T08:12:34.180Z,20.68
2019-06-15T08:13:34.186Z,20.64
2019-06-15T08:14:34.188Z,20.61
2019-06-15T08:15:34.149Z,20.71
2019-06-15T08:16:34.137Z,20.73
2019-06-15T08:17:34.129Z,20.72
2019-06-15T08:18:34.112Z,20.72
2019-06-15T08:19:34.135Z,20.69
2019-06-15T08:20:34.097Z,20.78
2019-06-15T08:21:34.080Z,20.88
2019-06-15T08:22:34.070Z,20.83
2019-06-15T08:23:34.056Z,20.88
2019-06-15T08:24:34.082Z,20.94
2019-06-15T08:25:34.038Z,20.96
2019-06-15T08:26:34.024Z,20.94
2019-06-15T08:27:34.011Z,21.01
2019-06-15T08:28:40.410Z,21.08
2019-06-15T08:29:35.024Z,21.16
2019-06-15T08:30:33.979Z,21.18
2019-06-15T08:31:33.966Z,21.15
2019-06-15T08:32:33.954Z,21.09
2019-06-15T08:33:33.944Z,21.09
2019-06-15T08:34:33.964Z,20.91
2019-06-15T08:35:33.922Z,20.98
2019-06-15T08:36:33.909Z,20.96
2019-06-15T08:37:33.899Z,20.98
2019-06-15T08:38:33.893Z,20.93
2019-06-15T08:39:34.185Z,20.85
2019-06-15T08:40:33.898Z,20.76
2019-06-15T08:41:33.853Z,20.81
2019-06-15T08:42:33.845Z,20.73
2019-06-15T08:43:33.831Z,20.75
2019-06-15T08:44:33.820Z,20.71
2019-06-15T08:45:33.843Z,20.69
2019-06-15T08:46:33.808Z,20.72
2019-06-15T08:47:33.791Z,20.71
2019-06-15T08:48:33.779Z,20.71
2019-06-15T08:49:33.766Z,20.85
2019-06-15T08:50:33.785Z,20.85
2019-06-15T08:51:33.745Z,20.85
2019-06-15T08:52:33.728Z,20.91
2019-06-15T08:53:33.717Z,20.87
2019-06-15T08:54:33.791Z,21.01
2019-06-15T08:55:33.732Z,21.11
2019-06-15T08:56:33.690Z,21.09
2019-06-15T08:57:33.672Z,21.11
2019-06-15T08:58:33.664Z,21.18
2019-06-15T08:59:33.650Z,21.09
2019-06-15T09:00:33.673Z,21.18
2019-06-15T09:01:33.637Z,21.11
2019-06-15T09:02:33.616Z,21.22
2019-06-15T09:03:33.610Z,21.12
2019-06-15T09:04:33.593Z,21.19
2019-06-15T09:05:33.616Z,21.18
2019-06-15T09:06:33.571Z,21.33
2019-06-15T09:07:33.563Z,21.34
2019-06-15T09:08:33.550Z,21.37
2019-06-15T09:09:33.541Z,21.52
2019-06-15T09:10:33.559Z,21.67
2019-06-15T09:11:33.517Z,21.67
2019-06-15T09:12:33.507Z,21.61
2019-06-15T09:13:33.499Z,21.68
2019-06-15T09:14:33.497Z,21.70
2019-06-15T09:15:33.503Z,21.64
2019-06-15T09:16:33.463Z,21.66
2019-06-15T09:17:33.451Z,21.61
2019-06-15T09:18:33.436Z,21.61
2019-06-15T09:19:33.434Z,21.63
2019-06-15T09:20:33.422Z,21.70
2019-06-15T09:21:33.437Z,21.82
2019-06-15T09:22:33.397Z,21.90
2019-06-15T09:23:33.382Z,22.01
2019-06-15T09:24:33.377Z,22.05
2019-06-15T09:25:36.697Z,22.09
2019-06-15T09:26:33.379Z,22.20
2019-06-15T09:27:33.334Z,22.17
2019-06-15T09:28:33.330Z,22.21
2019-06-15T09:29:33.330Z,22.33
2019-06-15T09:30:33.309Z,22.19
2019-06-15T09:31:33.324Z,22.29
2019-06-15T09:32:33.279Z,22.31
2019-06-15T09:33:33.269Z,22.29
2019-06-15T09:34:33.256Z,22.33
2019-06-15T09:35:33.254Z,22.23
2019-06-15T09:36:33.265Z,22.15
2019-06-15T09:37:33.222Z,22.08
2019-06-15T09:38:33.210Z,21.99
2019-06-15T09:39:33.202Z,22.09
2019-06-15T09:40:33.189Z,22.20
2019-06-15T09:41:33.216Z,22.20
2019-06-15T09:42:33.168Z,22.30
2019-06-15T09:43:33.162Z,22.36
2019-06-15T09:44:33.142Z,22.51
2019-06-15T09:45:33.295Z,22.49
2019-06-15T09:46:33.151Z,22.56
2019-06-15T09:47:33.114Z,22.45
2019-06-15T09:48:33.098Z,22.51
2019-06-15T09:49:33.089Z,22.57
2019-06-15T09:50:33.077Z,22.51
2019-06-15T09:51:33.095Z,22.61
2019-06-15T09:52:33.054Z,22.61
2019-06-15T09:53:33.048Z,22.54
2019-06-15T09:54:33.029Z,22.61
2019-06-15T09:55:33.020Z,22.66
2019-06-15T09:56:33.041Z,22.64
2019-06-15T09:57:32.995Z,22.63
2019-06-15T09:58:32.985Z,22.76
2019-06-15T09:59:32.974Z,22.79
2019-06-15T10:00:32.963Z,22.75
2019-06-15T10:01:32.984Z,22.79
2019-06-15T10:02:32.938Z,22.84
2019-06-15T10:03:32.926Z,22.84
2019-06-15T10:04:32.920Z,22.82
2019-06-15T10:05:32.907Z,22.72
2019-06-15T10:06:32.926Z,22.78
2019-06-15T10:07:32.894Z,22.69
2019-06-15T10:08:32.874Z,22.66
2019-06-15T10:09:32.863Z,22.69
2019-06-15T10:10:32.853Z,22.66
2019-06-15T10:11:32.843Z,22.49
2019-06-15T10:12:32.865Z,22.59
2019-06-15T10:13:32.816Z,22.45
2019-06-15T10:14:32.807Z,22.45
2019-06-15T10:15:32.793Z,22.49
2019-06-15T10:16:32.785Z,22.42
2019-06-15T10:17:32.804Z,22.39
2019-06-15T10:18:32.760Z,22.29
2019-06-15T10:19:32.752Z,22.27
2019-06-15T10:20:32.737Z,22.21
2019-06-15T10:21:32.732Z,22.11
2019-06-15T10:22:32.755Z,22.06
2019-06-15T10:23:32.708Z,21.96
2019-06-15T10:24:32.694Z,21.99
2019-06-15T10:25:32.681Z,21.94
2019-06-15T10:26:32.671Z,21.82
2019-06-15T10:27:32.691Z,21.79
2019-06-15T10:28:32.647Z,21.73
2019-06-15T10:29:41.559Z,21.67
2019-06-15T10:30:33.624Z,21.61
2019-06-15T10:31:32.613Z,21.58
2019-06-15T10:32:32.635Z,21.58
2019-06-15T10:33:32.598Z,21.58
2019-06-15T10:34:32.580Z,21.59
2019-06-15T10:35:32.570Z,21.56
2019-06-15T10:36:32.557Z,21.59
2019-06-15T10:37:32.547Z,21.67
2019-06-15T10:38:32.565Z,21.64
2019-06-15T10:39:32.527Z,21.71
2019-06-15T10:40:32.511Z,21.74
2019-06-15T10:41:32.500Z,21.83
2019-06-15T10:42:32.502Z,21.86
2019-06-15T10:43:32.508Z,21.91
2019-06-15T10:44:32.467Z,21.96
2019-06-15T10:45:32.454Z,21.98
2019-06-15T10:46:32.443Z,21.96
2019-06-15T10:47:32.441Z,21.98
2019-06-15T10:48:32.454Z,22.01
2019-06-15T10:49:32.418Z,22.02
2019-06-15T10:50:32.401Z,21.94
2019-06-15T10:51:32.386Z,21.94
2019-06-15T10:52:32.375Z,22.08
2019-06-15T10:53:32.400Z,21.98
2019-06-15T10:54:32.355Z,22.08
2019-06-15T10:55:32.348Z,22.17
2019-06-15T10:56:32.339Z,22.06
2019-06-15T10:57:32.319Z,22.17
2019-06-15T10:58:32.339Z,22.15
2019-06-15T10:59:32.297Z,22.20
2019-06-15T11:00:32.288Z,22.26
2019-06-15T11:01:32.279Z,22.33
2019-06-15T11:02:32.272Z,22.44
2019-06-15T11:03:32.284Z,22.63
2019-06-15T11:04:32.242Z,22.79
2019-06-15T11:05:32.232Z,22.97
2019-06-15T11:06:32.220Z,23.15
2019-06-15T11:07:32.208Z,23.11
2019-06-15T11:08:32.243Z,22.97
2019-06-15T11:09:32.185Z,22.88
2019-06-15T11:10:32.174Z,22.78
2019-06-15T11:11:32.165Z,22.78
2019-06-15T11:12:45.313Z,22.74
2019-06-15T11:13:33.171Z,22.51
2019-06-15T11:14:32.138Z,22.45
2019-06-15T11:15:32.119Z,22.49
2019-06-15T11:16:32.110Z,22.36
2019-06-15T11:17:32.101Z,22.41
2019-06-15T11:18:32.119Z,22.33
2019-06-15T11:19:32.073Z,22.17
2019-06-15T11:20:32.063Z,22.23
2019-06-15T11:21:32.050Z,22.11
2019-06-15T11:22:32.039Z,22.09
2019-06-15T11:23:32.032Z,22.05
2019-06-15T11:24:32.048Z,22.01
2019-06-15T11:25:32.008Z,21.83
2019-06-15T11:26:31.995Z,21.83
2019-06-15T11:27:31.984Z,21.90
2019-06-15T11:28:31.975Z,21.89
2019-06-15T11:29:31.998Z,21.85
2019-06-15T11:30:31.951Z,21.85
2019-06-15T11:31:31.939Z,21.79
2019-06-15T11:32:31.928Z,21.82
2019-06-15T11:33:31.914Z,21.83
2019-06-15T11:34:31.941Z,21.77
2019-06-15T11:35:31.894Z,21.79
2019-06-15T11:36:31.881Z,21.81
2019-06-15T11:37:31.876Z,21.70
2019-06-15T11:38:31.860Z,21.77
2019-06-15T11:39:31.886Z,21.77
2019-06-15T11:40:31.836Z,21.73
2019-06-15T11:41:31.827Z,21.68
2019-06-15T11:42:31.814Z,21.64
2019-06-15T11:43:31.805Z,21.70
2019-06-15T11:44:31.832Z,21.66
2019-06-15T11:45:31.784Z,21.64
2019-06-15T11:46:31.773Z,21.68
2019-06-15T11:47:31.765Z,21.71
2019-06-15T11:48:31.745Z,21.81
2019-06-15T11:49:31.765Z,21.86
2019-06-15T11:50:31.724Z,21.99
2019-06-15T11:51:31.718Z,21.98
2019-06-15T11:52:31.706Z,21.98
2019-06-15T11:53:31.689Z,22.02
2019-06-15T11:54:31.713Z,22.14
2019-06-15T11:55:39.411Z,22.21
2019-06-15T11:56:32.662Z,22.31
2019-06-15T11:57:31.644Z,22.57
2019-06-15T11:58:31.634Z,22.41
2019-06-15T11:59:31.676Z,22.41
2019-06-15T12:00:31.937Z,22.41
2019-06-15T12:01:31.602Z,22.33
2019-06-15T12:02:31.594Z,22.31
2019-06-15T12:03:31.612Z,22.15
2019-06-15T12:04:31.570Z,22.08
2019-06-15T12:05:31.590Z,22.20
2019-06-15T12:06:31.543Z,22.11
2019-06-15T12:07:34.342Z,22.20
2019-06-15T12:08:31.526Z,22.15
2019-06-15T12:09:31.525Z,22.12
2019-06-15T12:10:31.530Z,22.14
2019-06-15T12:11:31.494Z,22.17
2019-06-15T12:12:31.478Z,22.23
2019-06-15T12:13:31.464Z,22.15
2019-06-15T12:14:31.460Z,22.19
2019-06-15T12:15:31.475Z,22.19
2019-06-15T12:16:31.446Z,22.29
2019-06-15T12:17:31.419Z,22.19
2019-06-15T12:18:31.409Z,22.29
2019-06-15T12:19:31.400Z,22.31
2019-06-15T12:20:31.461Z,22.23
2019-06-15T12:21:31.373Z,22.38
2019-06-15T12:22:31.368Z,22.45
2019-06-15T12:23:31.351Z,22.72
2019-06-15T12:24:31.340Z,22.94
2019-06-15T12:25:31.360Z,23.00
2019-06-15T12:26:31.319Z,23.19
2019-06-15T12:27:31.309Z,23.15
2019-06-15T12:28:31.306Z,23.19
2019-06-15T12:29:31.284Z,23.14
2019-06-15T12:30:45.552Z,23.07
2019-06-15T12:31:32.261Z,23.31
2019-06-15T12:32:31.266Z,23.57
2019-06-15T12:33:31.241Z,23.67
2019-06-15T12:34:31.237Z,23.37
2019-06-15T12:35:31.248Z,23.32
2019-06-15T12:36:31.209Z,23.38
2019-06-15T12:37:31.198Z,23.62
2019-06-15T12:38:31.183Z,23.72
2019-06-15T12:39:31.175Z,23.89
2019-06-15T12:40:31.167Z,24.12
2019-06-15T12:41:31.185Z,24.24
2019-06-15T12:42:31.139Z,24.16
2019-06-15T12:43:31.131Z,23.99
2019-06-15T12:44:31.118Z,23.90
2019-06-15T12:45:31.110Z,23.96
2019-06-15T12:46:31.132Z,24.11
2019-06-15T12:47:31.089Z,23.97
2019-06-15T12:48:31.074Z,23.86
2019-06-15T12:49:31.061Z,23.84
2019-06-15T12:50:31.050Z,23.97
2019-06-15T12:51:31.076Z,24.29
2019-06-15T12:52:31.045Z,24.39